EmailTwitter


Surface observations / France / LFMK (07635)

Regions: Quebec | Canada | USA | Europe | France | UK | Elsewhere
Station
Display
Info & Location for LFMK (07635) | Help decoding METAR

Weather Conditions observed on 2018/02/24 at 18:00 UTC at CARCASSONNE/SALV, FR (LFMK)

Sky conditions: overcast.

Temperature: 7.0 Celsius.

Dewpoint: 0.0 Celsius.

Relative Humidity: 61%

Windchill Factor: 5.

Winds: West at 13 km/h or 7 knots.

Mean Sea level Pressure: 100.90 kilopascals.

Horizontal visibility: 5.59 statute miles or 8.95 kilometers.

Height of the Ceiling: 2195 metres ( 7200 feet ).

Coded METAR:

LFMK 241800Z AUTO 27007KT 230V290 9000 OVC072 07/00 Q1009 NOSIG=